sensor_id;sensor_type;location;lat;lon;timestamp;P1;durP1;ratioP1;P2;durP2;ratioP2
21505;SDS011;10914;48.886;9.394;2023-03-01T00:00:26;60.15;;;53.78;;
21505;SDS011;10914;48.886;9.394;2023-03-01T00:02:52;58.50;;;52.50;;
21505;SDS011;10914;48.886;9.394;2023-03-01T00:05:17;56.53;;;50.63;;
21505;SDS011;10914;48.886;9.394;2023-03-01T00:07:42;53.72;;;48.33;;
21505;SDS011;10914;48.886;9.394;2023-03-01T00:10:07;50.13;;;45.13;;
21505;SDS011;10914;48.886;9.394;2023-03-01T00:12:33;51.42;;;46.28;;
21505;SDS011;10914;48.886;9.394;2023-03-01T00:14:58;53.52;;;48.26;;
21505;SDS011;10914;48.886;9.394;2023-03-01T00:17:23;51.30;;;46.08;;
21505;SDS011;10914;48.886;9.394;2023-03-01T00:19:48;51.90;;;46.97;;
21505;SDS011;10914;48.886;9.394;2023-03-01T00:22:14;50.83;;;45.90;;
21505;SDS011;10914;48.886;9.394;2023-03-01T00:24:39;53.25;;;47.80;;
21505;SDS011;10914;48.886;9.394;2023-03-01T00:27:04;51.15;;;46.50;;
21505;SDS011;10914;48.886;9.394;2023-03-01T00:29:29;51.25;;;46.55;;
21505;SDS011;10914;48.886;9.394;2023-03-01T00:31:54;51.10;;;46.60;;
21505;SDS011;10914;48.886;9.394;2023-03-01T00:34:20;52.42;;;47.42;;
21505;SDS011;10914;48.886;9.394;2023-03-01T00:36:45;50.45;;;45.60;;
21505;SDS011;10914;48.886;9.394;2023-03-01T00:39:11;52.38;;;47.38;;
21505;SDS011;10914;48.886;9.394;2023-03-01T00:41:37;50.42;;;45.65;;
21505;SDS011;10914;48.886;9.394;2023-03-01T00:44:02;51.45;;;46.63;;
21505;SDS011;10914;48.886;9.394;2023-03-01T00:46:27;50.15;;;45.00;;
21505;SDS011;10914;48.886;9.394;2023-03-01T00:48:54;48.17;;;43.45;;
21505;SDS011;10914;48.886;9.394;2023-03-01T00:51:21;50.32;;;45.34;;
21505;SDS011;10914;48.886;9.394;2023-03-01T00:53:46;47.50;;;42.88;;
21505;SDS011;10914;48.886;9.394;2023-03-01T00:56:12;48.90;;;43.90;;
21505;SDS011;10914;48.886;9.394;2023-03-01T00:58:38;48.88;;;44.38;;
21505;SDS011;10914;48.886;9.394;2023-03-01T01:01:07;51.17;;;46.35;;
21505;SDS011;10914;48.886;9.394;2023-03-01T01:03:32;49.85;;;45.05;;
21505;SDS011;10914;48.886;9.394;2023-03-01T01:05:57;50.50;;;45.88;;
21505;SDS011;10914;48.886;9.394;2023-03-01T01:08:23;48.50;;;44.08;;
21505;SDS011;10914;48.886;9.394;2023-03-01T01:10:48;49.83;;;44.83;;
21505;SDS011;10914;48.886;9.394;2023-03-01T01:13:13;49.10;;;44.10;;
21505;SDS011;10914;48.886;9.394;2023-03-01T01:15:39;49.85;;;45.08;;
21505;SDS011;10914;48.886;9.394;2023-03-01T01:18:04;51.58;;;46.30;;
21505;SDS011;10914;48.886;9.394;2023-03-01T01:20:29;50.95;;;45.90;;
21505;SDS011;10914;48.886;9.394;2023-03-01T01:22:54;49.88;;;44.80;;
21505;SDS011;10914;48.886;9.394;2023-03-01T01:25:20;48.75;;;44.10;;
21505;SDS011;10914;48.886;9.394;2023-03-01T01:27:45;50.17;;;45.28;;
21505;SDS011;10914;48.886;9.394;2023-03-01T01:30:10;49.78;;;44.78;;
21505;SDS011;10914;48.886;9.394;2023-03-01T01:32:36;48.80;;;44.33;;
21505;SDS011;10914;48.886;9.394;2023-03-01T01:35:01;51.05;;;46.42;;
21505;SDS011;10914;48.886;9.394;2023-03-01T01:37:26;51.25;;;46.38;;
21505;SDS011;10914;48.886;9.394;2023-03-01T01:39:58;52.03;;;46.83;;
21505;SDS011;10914;48.886;9.394;2023-03-01T01:42:24;51.92;;;46.97;;
21505;SDS011;10914;48.886;9.394;2023-03-01T01:45:15;50.40;;;45.40;;
21505;SDS011;10914;48.886;9.394;2023-03-01T01:47:34;49.65;;;44.63;;
21505;SDS011;10914;48.886;9.394;2023-03-01T01:49:59;47.17;;;42.67;;
21505;SDS011;10914;48.886;9.394;2023-03-01T01:52:35;46.38;;;41.90;;
21505;SDS011;10914;48.886;9.394;2023-03-01T01:55:11;48.05;;;43.28;;
21505;SDS011;10914;48.886;9.394;2023-03-01T01:57:43;49.13;;;44.05;;
21505;SDS011;10914;48.886;9.394;2023-03-01T02:00:11;47.60;;;42.70;;
21505;SDS011;10914;48.886;9.394;2023-03-01T02:02:37;48.47;;;43.55;;
21505;SDS011;10914;48.886;9.394;2023-03-01T02:05:06;47.83;;;43.03;;
21505;SDS011;10914;48.886;9.394;2023-03-01T02:07:35;48.25;;;43.25;;
21505;SDS011;10914;48.886;9.394;2023-03-01T02:10:02;47.50;;;42.72;;
21505;SDS011;10914;48.886;9.394;2023-03-01T02:12:27;48.05;;;43.08;;
21505;SDS011;10914;48.886;9.394;2023-03-01T02:14:55;46.13;;;41.42;;
21505;SDS011;10914;48.886;9.394;2023-03-01T02:17:21;48.88;;;44.15;;
21505;SDS011;10914;48.886;9.394;2023-03-01T02:19:59;49.60;;;44.95;;
21505;SDS011;10914;48.886;9.394;2023-03-01T02:22:32;51.90;;;46.92;;
21505;SDS011;10914;48.886;9.394;2023-03-01T02:25:12;54.38;;;49.25;;
21505;SDS011;10914;48.886;9.394;2023-03-01T02:27:50;55.45;;;50.38;;
21505;SDS011;10914;48.886;9.394;2023-03-01T02:30:18;51.72;;;47.00;;
21505;SDS011;10914;48.886;9.394;2023-03-01T02:32:44;53.08;;;48.28;;
21505;SDS011;10914;48.886;9.394;2023-03-01T02:35:10;52.67;;;47.47;;
21505;SDS011;10914;48.886;9.394;2023-03-01T02:37:36;52.33;;;47.60;;
21505;SDS011;10914;48.886;9.394;2023-03-01T02:40:04;57.40;;;52.33;;
21505;SDS011;10914;48.886;9.394;2023-03-01T02:42:33;62.28;;;56.97;;
21505;SDS011;10914;48.886;9.394;2023-03-01T02:45:00;60.92;;;55.55;;
21505;SDS011;10914;48.886;9.394;2023-03-01T02:47:25;57.22;;;51.67;;
21505;SDS011;10914;48.886;9.394;2023-03-01T02:49:51;58.47;;;53.13;;
21505;SDS011;10914;48.886;9.394;2023-03-01T02:52:20;57.92;;;52.85;;
21505;SDS011;10914;48.886;9.394;2023-03-01T02:57:25;55.53;;;50.45;;
21505;SDS011;10914;48.886;9.394;2023-03-01T02:59:52;54.97;;;49.95;;
21505;SDS011;10914;48.886;9.394;2023-03-01T03:05:00;58.83;;;53.58;;
21505;SDS011;10914;48.886;9.394;2023-03-01T03:07:26;59.97;;;54.58;;
21505;SDS011;10914;48.886;9.394;2023-03-01T03:09:51;59.45;;;54.00;;
21505;SDS011;10914;48.886;9.394;2023-03-01T03:12:16;58.08;;;52.70;;
21505;SDS011;10914;48.886;9.394;2023-03-01T03:14:41;58.78;;;53.45;;
21505;SDS011;10914;48.886;9.394;2023-03-01T03:17:07;60.22;;;54.63;;
21505;SDS011;10914;48.886;9.394;2023-03-01T03:19:32;59.53;;;53.85;;
21505;SDS011;10914;48.886;9.394;2023-03-01T03:21:57;57.55;;;52.47;;
21505;SDS011;10914;48.886;9.394;2023-03-01T03:24:22;57.67;;;52.00;;
21505;SDS011;10914;48.886;9.394;2023-03-01T03:26:47;58.65;;;53.33;;
21505;SDS011;10914;48.886;9.394;2023-03-01T03:29:13;57.63;;;52.25;;
21505;SDS011;10914;48.886;9.394;2023-03-01T03:31:38;58.50;;;53.08;;
21505;SDS011;10914;48.886;9.394;2023-03-01T03:34:03;56.60;;;51.35;;
21505;SDS011;10914;48.886;9.394;2023-03-01T03:36:28;57.42;;;51.90;;
21505;SDS011;10914;48.886;9.394;2023-03-01T03:38:53;57.50;;;52.05;;
21505;SDS011;10914;48.886;9.394;2023-03-01T03:41:18;56.72;;;51.53;;
21505;SDS011;10914;48.886;9.394;2023-03-01T03:43:44;56.68;;;51.36;;
21505;SDS011;10914;48.886;9.394;2023-03-01T03:46:10;57.13;;;51.78;;
21505;SDS011;10914;48.886;9.394;2023-03-01T03:48:36;59.95;;;54.25;;
21505;SDS011;10914;48.886;9.394;2023-03-01T03:51:02;59.90;;;54.33;;
21505;SDS011;10914;48.886;9.394;2023-03-01T03:53:30;60.35;;;54.78;;
21505;SDS011;10914;48.886;9.394;2023-03-01T03:55:55;60.10;;;54.83;;
21505;SDS011;10914;48.886;9.394;2023-03-01T03:58:21;62.78;;;57.50;;
21505;SDS011;10914;48.886;9.394;2023-03-01T04:00:47;62.05;;;56.80;;
21505;SDS011;10914;48.886;9.394;2023-03-01T04:03:14;59.70;;;54.10;;
21505;SDS011;10914;48.886;9.394;2023-03-01T04:05:40;57.03;;;51.83;;
21505;SDS011;10914;48.886;9.394;2023-03-01T04:08:06;58.15;;;52.85;;
21505;SDS011;10914;48.886;9.394;2023-03-01T04:10:34;58.78;;;53.42;;
21505;SDS011;10914;48.886;9.394;2023-03-01T04:13:01;56.97;;;51.60;;
21505;SDS011;10914;48.886;9.394;2023-03-01T04:15:26;61.92;;;56.72;;
21505;SDS011;10914;48.886;9.394;2023-03-01T04:17:52;65.72;;;59.88;;
21505;SDS011;10914;48.886;9.394;2023-03-01T04:20:19;66.65;;;60.95;;
21505;SDS011;10914;48.886;9.394;2023-03-01T04:23:00;66.35;;;60.67;;
21505;SDS011;10914;48.886;9.394;2023-03-01T04:25:35;66.15;;;60.72;;
21505;SDS011;10914;48.886;9.394;2023-03-01T04:28:00;62.25;;;56.85;;
21505;SDS011;10914;48.886;9.394;2023-03-01T04:30:25;66.23;;;60.63;;
21505;SDS011;10914;48.886;9.394;2023-03-01T04:32:51;67.30;;;61.50;;
21505;SDS011;10914;48.886;9.394;2023-03-01T04:35:16;68.10;;;62.10;;
21505;SDS011;10914;48.886;9.394;2023-03-01T04:37:41;66.03;;;60.10;;
21505;SDS011;10914;48.886;9.394;2023-03-01T04:40:06;65.18;;;59.70;;
21505;SDS011;10914;48.886;9.394;2023-03-01T04:42:41;62.70;;;57.35;;
21505;SDS011;10914;48.886;9.394;2023-03-01T04:45:07;62.60;;;57.22;;
21505;SDS011;10914;48.886;9.394;2023-03-01T04:47:37;58.03;;;52.70;;
21505;SDS011;10914;48.886;9.394;2023-03-01T04:50:03;56.30;;;51.22;;
21505;SDS011;10914;48.886;9.394;2023-03-01T04:52:28;56.08;;;51.00;;
21505;SDS011;10914;48.886;9.394;2023-03-01T04:54:53;54.58;;;49.38;;
21505;SDS011;10914;48.886;9.394;2023-03-01T04:57:18;54.80;;;49.55;;
21505;SDS011;10914;48.886;9.394;2023-03-01T04:59:44;54.78;;;49.75;;
21505;SDS011;10914;48.886;9.394;2023-03-01T05:02:09;54.95;;;49.75;;
21505;SDS011;10914;48.886;9.394;2023-03-01T05:04:34;55.70;;;50.60;;
21505;SDS011;10914;48.886;9.394;2023-03-01T05:06:59;58.08;;;52.65;;
21505;SDS011;10914;48.886;9.394;2023-03-01T05:09:24;55.33;;;50.40;;
21505;SDS011;10914;48.886;9.394;2023-03-01T05:11:49;56.45;;;51.20;;
21505;SDS011;10914;48.886;9.394;2023-03-01T05:14:16;54.53;;;49.63;;
21505;SDS011;10914;48.886;9.394;2023-03-01T05:16:42;54.88;;;49.67;;
21505;SDS011;10914;48.886;9.394;2023-03-01T05:19:07;55.60;;;50.40;;
21505;SDS011;10914;48.886;9.394;2023-03-01T05:21:40;55.95;;;50.55;;
21505;SDS011;10914;48.886;9.394;2023-03-01T05:24:25;55.80;;;50.75;;
21505;SDS011;10914;48.886;9.394;2023-03-01T05:26:50;55.95;;;50.58;;
21505;SDS011;10914;48.886;9.394;2023-03-01T05:29:22;56.35;;;50.97;;
21505;SDS011;10914;48.886;9.394;2023-03-01T05:31:57;57.90;;;52.40;;
21505;SDS011;10914;48.886;9.394;2023-03-01T05:34:26;58.97;;;53.30;;
21505;SDS011;10914;48.886;9.394;2023-03-01T05:36:52;56.60;;;51.17;;
21505;SDS011;10914;48.886;9.394;2023-03-01T05:39:21;58.03;;;52.70;;
21505;SDS011;10914;48.886;9.394;2023-03-01T05:41:53;59.97;;;54.58;;
21505;SDS011;10914;48.886;9.394;2023-03-01T05:44:19;57.60;;;52.13;;
21505;SDS011;10914;48.886;9.394;2023-03-01T05:46:45;58.85;;;53.47;;
21505;SDS011;10914;48.886;9.394;2023-03-01T05:49:10;57.15;;;51.97;;
21505;SDS011;10914;48.886;9.394;2023-03-01T05:51:36;58.17;;;52.60;;
21505;SDS011;10914;48.886;9.394;2023-03-01T05:54:01;58.65;;;53.00;;
21505;SDS011;10914;48.886;9.394;2023-03-01T05:56:26;56.00;;;50.92;;
21505;SDS011;10914;48.886;9.394;2023-03-01T05:58:51;56.78;;;51.55;;
21505;SDS011;10914;48.886;9.394;2023-03-01T06:01:16;62.45;;;56.65;;
21505;SDS011;10914;48.886;9.394;2023-03-01T06:03:42;60.55;;;54.88;;
21505;SDS011;10914;48.886;9.394;2023-03-01T06:06:07;61.92;;;56.28;;
21505;SDS011;10914;48.886;9.394;2023-03-01T06:08:32;64.18;;;58.55;;
21505;SDS011;10914;48.886;9.394;2023-03-01T06:10:57;66.43;;;60.67;;
21505;SDS011;10914;48.886;9.394;2023-03-01T06:13:23;67.15;;;61.03;;
21505;SDS011;10914;48.886;9.394;2023-03-01T06:15:48;70.00;;;63.72;;
21505;SDS011;10914;48.886;9.394;2023-03-01T06:18:13;68.10;;;62.28;;
21505;SDS011;10914;48.886;9.394;2023-03-01T06:20:38;69.97;;;63.63;;
21505;SDS011;10914;48.886;9.394;2023-03-01T06:23:03;62.53;;;56.83;;
21505;SDS011;10914;48.886;9.394;2023-03-01T06:25:29;57.40;;;51.60;;
21505;SDS011;10914;48.886;9.394;2023-03-01T06:27:54;58.30;;;52.67;;
21505;SDS011;10914;48.886;9.394;2023-03-01T06:30:20;53.55;;;48.17;;
21505;SDS011;10914;48.886;9.394;2023-03-01T06:32:46;53.20;;;47.55;;
21505;SDS011;10914;48.886;9.394;2023-03-01T06:35:12;52.17;;;46.72;;
21505;SDS011;10914;48.886;9.394;2023-03-01T06:37:38;51.00;;;45.20;;
21505;SDS011;10914;48.886;9.394;2023-03-01T06:40:03;51.22;;;46.13;;
21505;SDS011;10914;48.886;9.394;2023-03-01T06:42:36;50.85;;;45.30;;
21505;SDS011;10914;48.886;9.394;2023-03-01T06:45:01;51.50;;;46.10;;
21505;SDS011;10914;48.886;9.394;2023-03-01T06:47:26;48.42;;;43.40;;
21505;SDS011;10914;48.886;9.394;2023-03-01T06:49:51;51.08;;;45.88;;
21505;SDS011;10914;48.886;9.394;2023-03-01T06:52:17;51.60;;;46.08;;
21505;SDS011;10914;48.886;9.394;2023-03-01T06:54:42;50.55;;;45.25;;
21505;SDS011;10914;48.886;9.394;2023-03-01T06:57:07;50.20;;;45.08;;
21505;SDS011;10914;48.886;9.394;2023-03-01T06:59:32;50.97;;;45.47;;
21505;SDS011;10914;48.886;9.394;2023-03-01T07:01:57;50.75;;;45.42;;
21505;SDS011;10914;48.886;9.394;2023-03-01T07:04:22;49.72;;;44.55;;
21505;SDS011;10914;48.886;9.394;2023-03-01T07:06:48;49.63;;;44.67;;
21505;SDS011;10914;48.886;9.394;2023-03-01T07:09:19;50.67;;;45.60;;
21505;SDS011;10914;48.886;9.394;2023-03-01T07:11:46;52.10;;;46.60;;
21505;SDS011;10914;48.886;9.394;2023-03-01T07:14:12;54.58;;;48.78;;
21505;SDS011;10914;48.886;9.394;2023-03-01T07:16:37;55.12;;;48.68;;
21505;SDS011;10914;48.886;9.394;2023-03-01T07:19:02;54.45;;;48.60;;
21505;SDS011;10914;48.886;9.394;2023-03-01T07:21:27;55.97;;;50.00;;
21505;SDS011;10914;48.886;9.394;2023-03-01T07:23:52;54.42;;;49.15;;
21505;SDS011;10914;48.886;9.394;2023-03-01T07:26:18;60.30;;;54.67;;
21505;SDS011;10914;48.886;9.394;2023-03-01T07:28:43;64.15;;;58.15;;
21505;SDS011;10914;48.886;9.394;2023-03-01T07:31:08;60.90;;;55.10;;
21505;SDS011;10914;48.886;9.394;2023-03-01T07:33:33;58.65;;;53.05;;
21505;SDS011;10914;48.886;9.394;2023-03-01T07:35:59;58.88;;;53.33;;
21505;SDS011;10914;48.886;9.394;2023-03-01T07:38:24;55.95;;;50.60;;
21505;SDS011;10914;48.886;9.394;2023-03-01T07:40:50;62.90;;;57.13;;
21505;SDS011;10914;48.886;9.394;2023-03-01T07:43:15;63.25;;;57.60;;
21505;SDS011;10914;48.886;9.394;2023-03-01T07:45:40;59.97;;;54.42;;
21505;SDS011;10914;48.886;9.394;2023-03-01T07:48:05;57.58;;;52.13;;
21505;SDS011;10914;48.886;9.394;2023-03-01T07:50:30;57.03;;;51.55;;
21505;SDS011;10914;48.886;9.394;2023-03-01T07:52:56;56.67;;;51.08;;
21505;SDS011;10914;48.886;9.394;2023-03-01T07:55:21;56.25;;;50.72;;
21505;SDS011;10914;48.886;9.394;2023-03-01T07:57:46;53.22;;;48.28;;
21505;SDS011;10914;48.886;9.394;2023-03-01T08:00:11;53.60;;;48.47;;
21505;SDS011;10914;48.886;9.394;2023-03-01T08:02:37;53.55;;;48.22;;
21505;SDS011;10914;48.886;9.394;2023-03-01T08:05:02;53.47;;;48.08;;
21505;SDS011;10914;48.886;9.394;2023-03-01T08:07:28;53.72;;;48.42;;
21505;SDS011;10914;48.886;9.394;2023-03-01T08:09:53;53.08;;;47.58;;
21505;SDS011;10914;48.886;9.394;2023-03-01T08:12:18;55.00;;;49.03;;
21505;SDS011;10914;48.886;9.394;2023-03-01T08:14:43;52.78;;;47.45;;
21505;SDS011;10914;48.886;9.394;2023-03-01T08:17:09;50.83;;;45.92;;
21505;SDS011;10914;48.886;9.394;2023-03-01T08:19:34;52.47;;;46.65;;
21505;SDS011;10914;48.886;9.394;2023-03-01T08:22:00;49.72;;;44.65;;
21505;SDS011;10914;48.886;9.394;2023-03-01T08:24:26;52.42;;;46.83;;
21505;SDS011;10914;48.886;9.394;2023-03-01T08:26:51;49.42;;;44.35;;
21505;SDS011;10914;48.886;9.394;2023-03-01T08:29:16;49.67;;;44.55;;
21505;SDS011;10914;48.886;9.394;2023-03-01T08:31:41;49.90;;;44.70;;
21505;SDS011;10914;48.886;9.394;2023-03-01T08:34:08;50.17;;;44.80;;
21505;SDS011;10914;48.886;9.394;2023-03-01T08:36:41;49.90;;;44.78;;
21505;SDS011;10914;48.886;9.394;2023-03-01T08:39:06;50.25;;;44.97;;
21505;SDS011;10914;48.886;9.394;2023-03-01T08:41:32;49.45;;;44.42;;
21505;SDS011;10914;48.886;9.394;2023-03-01T08:43:57;48.80;;;43.83;;
21505;SDS011;10914;48.886;9.394;2023-03-01T08:46:26;49.47;;;44.30;;
21505;SDS011;10914;48.886;9.394;2023-03-01T08:48:51;48.85;;;43.67;;
21505;SDS011;10914;48.886;9.394;2023-03-01T08:51:17;49.58;;;44.25;;
21505;SDS011;10914;48.886;9.394;2023-03-01T08:53:43;49.97;;;44.67;;
21505;SDS011;10914;48.886;9.394;2023-03-01T08:56:08;48.90;;;43.70;;
21505;SDS011;10914;48.886;9.394;2023-03-01T08:58:34;48.38;;;43.30;;
21505;SDS011;10914;48.886;9.394;2023-03-01T09:01:00;49.40;;;44.08;;
21505;SDS011;10914;48.886;9.394;2023-03-01T09:03:25;50.35;;;45.15;;
21505;SDS011;10914;48.886;9.394;2023-03-01T09:05:51;48.72;;;43.63;;
21505;SDS011;10914;48.886;9.394;2023-03-01T09:08:17;49.72;;;44.53;;
21505;SDS011;10914;48.886;9.394;2023-03-01T09:10:42;48.65;;;43.70;;
21505;SDS011;10914;48.886;9.394;2023-03-01T09:13:07;47.42;;;42.88;;
21505;SDS011;10914;48.886;9.394;2023-03-01T09:15:32;47.95;;;42.97;;
21505;SDS011;10914;48.886;9.394;2023-03-01T09:17:58;49.20;;;44.05;;
21505;SDS011;10914;48.886;9.394;2023-03-01T09:20:24;48.92;;;43.70;;
21505;SDS011;10914;48.886;9.394;2023-03-01T09:22:49;48.38;;;43.40;;
21505;SDS011;10914;48.886;9.394;2023-03-01T09:25:14;47.88;;;42.92;;
21505;SDS011;10914;48.886;9.394;2023-03-01T09:27:39;48.30;;;43.40;;
21505;SDS011;10914;48.886;9.394;2023-03-01T09:30:05;49.97;;;44.67;;
21505;SDS011;10914;48.886;9.394;2023-03-01T09:32:30;51.28;;;46.35;;
21505;SDS011;10914;48.886;9.394;2023-03-01T09:34:56;50.92;;;46.03;;
21505;SDS011;10914;48.886;9.394;2023-03-01T09:37:29;59.17;;;54.05;;
21505;SDS011;10914;48.886;9.394;2023-03-01T09:39:55;62.85;;;57.55;;
21505;SDS011;10914;48.886;9.394;2023-03-01T09:42:20;59.70;;;54.38;;
21505;SDS011;10914;48.886;9.394;2023-03-01T09:44:55;53.17;;;48.17;;
21505;SDS011;10914;48.886;9.394;2023-03-01T09:47:26;49.47;;;44.97;;
21505;SDS011;10914;48.886;9.394;2023-03-01T09:50:01;47.42;;;42.90;;
21505;SDS011;10914;48.886;9.394;2023-03-01T09:55:08;45.47;;;41.00;;
21505;SDS011;10914;48.886;9.394;2023-03-01T09:57:38;45.22;;;41.00;;
21505;SDS011;10914;48.886;9.394;2023-03-01T10:02:41;42.53;;;38.45;;
21505;SDS011;10914;48.886;9.394;2023-03-01T10:05:19;45.45;;;41.05;;
21505;SDS011;10914;48.886;9.394;2023-03-01T10:08:31;45.13;;;40.72;;
21505;SDS011;10914;48.886;9.394;2023-03-01T10:10:37;43.75;;;39.42;;
21505;SDS011;10914;48.886;9.394;2023-03-01T10:13:04;44.42;;;40.08;;
21505;SDS011;10914;48.886;9.394;2023-03-01T10:15:38;42.72;;;38.72;;
21505;SDS011;10914;48.886;9.394;2023-03-01T10:18:06;44.17;;;39.95;;
21505;SDS011;10914;48.886;9.394;2023-03-01T10:21:09;44.63;;;40.53;;
21505;SDS011;10914;48.886;9.394;2023-03-01T10:23:27;43.38;;;39.28;;
21505;SDS011;10914;48.886;9.394;2023-03-01T10:28:47;45.55;;;41.15;;
21505;SDS011;10914;48.886;9.394;2023-03-01T10:31:16;44.40;;;40.15;;
21505;SDS011;10914;48.886;9.394;2023-03-01T10:33:43;42.08;;;38.28;;
21505;SDS011;10914;48.886;9.394;2023-03-01T10:36:09;43.13;;;38.92;;
21505;SDS011;10914;48.886;9.394;2023-03-01T10:38:47;41.08;;;37.35;;
21505;SDS011;10914;48.886;9.394;2023-03-01T10:41:13;42.53;;;38.33;;
21505;SDS011;10914;48.886;9.394;2023-03-01T10:43:48;42.97;;;38.90;;
21505;SDS011;10914;48.886;9.394;2023-03-01T10:49:12;42.92;;;39.20;;
21505;SDS011;10914;48.886;9.394;2023-03-01T10:51:39;44.75;;;40.80;;
21505;SDS011;10914;48.886;9.394;2023-03-01T10:54:05;44.47;;;40.30;;
21505;SDS011;10914;48.886;9.394;2023-03-01T10:56:33;40.28;;;36.65;;
21505;SDS011;10914;48.886;9.394;2023-03-01T10:59:17;38.83;;;35.25;;
21505;SDS011;10914;48.886;9.394;2023-03-01T11:01:44;40.40;;;36.80;;
21505;SDS011;10914;48.886;9.394;2023-03-01T11:04:13;39.03;;;35.42;;
21505;SDS011;10914;48.886;9.394;2023-03-01T11:06:39;40.35;;;36.72;;
21505;SDS011;10914;48.886;9.394;2023-03-01T11:09:18;42.90;;;39.20;;
21505;SDS011;10914;48.886;9.394;2023-03-01T11:11:44;48.97;;;44.92;;
21505;SDS011;10914;48.886;9.394;2023-03-01T11:14:14;47.13;;;43.22;;
21505;SDS011;10914;48.886;9.394;2023-03-01T11:16:41;39.55;;;36.15;;
21505;SDS011;10914;48.886;9.394;2023-03-01T11:21:58;38.65;;;35.45;;
21505;SDS011;10914;48.886;9.394;2023-03-01T11:24:29;39.92;;;36.38;;
21505;SDS011;10914;48.886;9.394;2023-03-01T11:26:55;39.03;;;35.63;;
21505;SDS011;10914;48.886;9.394;2023-03-01T11:31:51;40.22;;;36.65;;
21505;SDS011;10914;48.886;9.394;2023-03-01T11:34:19;39.97;;;36.45;;
21505;SDS011;10914;48.886;9.394;2023-03-01T11:36:49;40.00;;;36.47;;
21505;SDS011;10914;48.886;9.394;2023-03-01T11:42:03;39.20;;;35.83;;
21505;SDS011;10914;48.886;9.394;2023-03-01T11:44:30;37.60;;;34.40;;
21505;SDS011;10914;48.886;9.394;2023-03-01T11:52:08;36.75;;;33.55;;
21505;SDS011;10914;48.886;9.394;2023-03-01T11:54:44;38.20;;;35.13;;
21505;SDS011;10914;48.886;9.394;2023-03-01T12:05:06;42.90;;;39.47;;
21505;SDS011;10914;48.886;9.394;2023-03-01T12:07:42;39.97;;;36.83;;
21505;SDS011;10914;48.886;9.394;2023-03-01T12:15:26;39.03;;;35.40;;
21505;SDS011;10914;48.886;9.394;2023-03-01T12:18:07;38.00;;;34.72;;
21505;SDS011;10914;48.886;9.394;2023-03-01T12:20:43;37.58;;;34.25;;
21505;SDS011;10914;48.886;9.394;2023-03-01T12:23:20;37.65;;;34.60;;
21505;SDS011;10914;48.886;9.394;2023-03-01T12:35:59;43.60;;;40.00;;
21505;SDS011;10914;48.886;9.394;2023-03-01T12:41:32;41.42;;;38.03;;
21505;SDS011;10914;48.886;9.394;2023-03-01T12:44:07;46.53;;;42.90;;
21505;SDS011;10914;48.886;9.394;2023-03-01T12:51:32;39.90;;;36.47;;
21505;SDS011;10914;48.886;9.394;2023-03-01T12:53:58;38.65;;;35.15;;
21505;SDS011;10914;48.886;9.394;2023-03-01T12:56:29;40.13;;;36.58;;
21505;SDS011;10914;48.886;9.394;2023-03-01T12:59:15;38.38;;;35.10;;
21505;SDS011;10914;48.886;9.394;2023-03-01T13:01:49;40.00;;;36.53;;
21505;SDS011;10914;48.886;9.394;2023-03-01T13:04:20;38.42;;;35.05;;
21505;SDS011;10914;48.886;9.394;2023-03-01T13:06:54;39.05;;;35.67;;
21505;SDS011;10914;48.886;9.394;2023-03-01T13:09:23;39.63;;;36.03;;
21505;SDS011;10914;48.886;9.394;2023-03-01T13:11:50;39.17;;;35.83;;
21505;SDS011;10914;48.886;9.394;2023-03-01T13:16:53;38.90;;;35.50;;
21505;SDS011;10914;48.886;9.394;2023-03-01T13:21:45;39.90;;;36.30;;
21505;SDS011;10914;48.886;9.394;2023-03-01T13:29:44;38.72;;;35.22;;
21505;SDS011;10914;48.886;9.394;2023-03-01T13:32:24;41.70;;;37.65;;
21505;SDS011;10914;48.886;9.394;2023-03-01T13:34:50;42.00;;;38.10;;
21505;SDS011;10914;48.886;9.394;2023-03-01T13:37:20;40.90;;;37.40;;
21505;SDS011;10914;48.886;9.394;2023-03-01T13:39:45;41.25;;;37.40;;
21505;SDS011;10914;48.886;9.394;2023-03-01T13:44:54;39.85;;;36.25;;
21505;SDS011;10914;48.886;9.394;2023-03-01T13:47:20;43.38;;;38.85;;
21505;SDS011;10914;48.886;9.394;2023-03-01T13:49:53;41.67;;;37.58;;
21505;SDS011;10914;48.886;9.394;2023-03-01T13:52:24;43.38;;;39.50;;
21505;SDS011;10914;48.886;9.394;2023-03-01T13:54:52;43.53;;;39.22;;
21505;SDS011;10914;48.886;9.394;2023-03-01T13:57:20;41.53;;;37.75;;
21505;SDS011;10914;48.886;9.394;2023-03-01T13:59:47;39.20;;;35.85;;
21505;SDS011;10914;48.886;9.394;2023-03-01T14:02:12;41.22;;;37.42;;
21505;SDS011;10914;48.886;9.394;2023-03-01T14:04:38;39.75;;;36.25;;
21505;SDS011;10914;48.886;9.394;2023-03-01T14:07:11;40.67;;;36.92;;
21505;SDS011;10914;48.886;9.394;2023-03-01T14:09:38;40.65;;;36.95;;
21505;SDS011;10914;48.886;9.394;2023-03-01T14:14:40;43.35;;;39.28;;
21505;SDS011;10914;48.886;9.394;2023-03-01T14:17:17;43.03;;;38.95;;
21505;SDS011;10914;48.886;9.394;2023-03-01T14:19:45;43.25;;;39.35;;
21505;SDS011;10914;48.886;9.394;2023-03-01T14:22:24;42.95;;;38.95;;
21505;SDS011;10914;48.886;9.394;2023-03-01T14:24:53;42.53;;;38.72;;
21505;SDS011;10914;48.886;9.394;2023-03-01T14:27:19;43.80;;;39.45;;
21505;SDS011;10914;48.886;9.394;2023-03-01T14:29:53;43.67;;;39.55;;
21505;SDS011;10914;48.886;9.394;2023-03-01T14:32:24;43.95;;;39.63;;
21505;SDS011;10914;48.886;9.394;2023-03-01T14:34:50;43.03;;;39.05;;
21505;SDS011;10914;48.886;9.394;2023-03-01T14:37:33;44.00;;;39.92;;
21505;SDS011;10914;48.886;9.394;2023-03-01T14:40:00;42.58;;;38.55;;
21505;SDS011;10914;48.886;9.394;2023-03-01T14:42:27;44.53;;;40.10;;
21505;SDS011;10914;48.886;9.394;2023-03-01T14:44:54;43.70;;;39.40;;
21505;SDS011;10914;48.886;9.394;2023-03-01T14:47:23;43.13;;;38.88;;
21505;SDS011;10914;48.886;9.394;2023-03-01T14:49:51;42.47;;;38.33;;
21505;SDS011;10914;48.886;9.394;2023-03-01T14:52:22;41.75;;;37.92;;
21505;SDS011;10914;48.886;9.394;2023-03-01T14:54:51;42.67;;;38.67;;
21505;SDS011;10914;48.886;9.394;2023-03-01T14:57:18;46.38;;;42.17;;
21505;SDS011;10914;48.886;9.394;2023-03-01T14:59:44;52.17;;;47.88;;
21505;SDS011;10914;48.886;9.394;2023-03-01T15:02:13;44.65;;;40.35;;
21505;SDS011;10914;48.886;9.394;2023-03-01T15:04:42;43.97;;;39.95;;
21505;SDS011;10914;48.886;9.394;2023-03-01T15:07:09;45.03;;;40.45;;
21505;SDS011;10914;48.886;9.394;2023-03-01T15:09:37;43.35;;;39.40;;
21505;SDS011;10914;48.886;9.394;2023-03-01T15:12:23;45.80;;;41.17;;
21505;SDS011;10914;48.886;9.394;2023-03-01T15:14:47;42.65;;;38.75;;
21505;SDS011;10914;48.886;9.394;2023-03-01T15:17:30;43.50;;;39.38;;
21505;SDS011;10914;48.886;9.394;2023-03-01T15:19:55;42.88;;;38.80;;
21505;SDS011;10914;48.886;9.394;2023-03-01T15:22:20;46.47;;;41.85;;
21505;SDS011;10914;48.886;9.394;2023-03-01T15:24:49;45.00;;;40.30;;
21505;SDS011;10914;48.886;9.394;2023-03-01T15:27:16;43.63;;;39.33;;
21505;SDS011;10914;48.886;9.394;2023-03-01T15:29:42;45.67;;;40.75;;
21505;SDS011;10914;48.886;9.394;2023-03-01T15:34:56;41.88;;;37.97;;
21505;SDS011;10914;48.886;9.394;2023-03-01T15:40:25;43.17;;;38.83;;
21505;SDS011;10914;48.886;9.394;2023-03-01T15:43:06;42.63;;;38.60;;
21505;SDS011;10914;48.886;9.394;2023-03-01T15:45:32;42.63;;;38.67;;